sensor_id;sensor_type;location;lat;lon;timestamp;pressure;altitude;pressure_sealevel;temperature;humidity
5062;BME280;2351;50.812;12.872;2023-12-07T00:01:28;97962.06;;;-0.56;100.00
5062;BME280;2351;50.812;12.872;2023-12-07T00:04:00;97960.38;;;-0.57;100.00
5062;BME280;2351;50.812;12.872;2023-12-07T00:06:33;97960.38;;;-0.57;100.00
5062;BME280;2351;50.812;12.872;2023-12-07T00:09:05;97957.84;;;-0.58;100.00
5062;BME280;2351;50.812;12.872;2023-12-07T00:11:36;97963.06;;;-0.58;100.00
5062;BME280;2351;50.812;12.872;2023-12-07T00:14:08;97961.28;;;-0.58;100.00
5062;BME280;2351;50.812;12.872;2023-12-07T00:16:40;97966.50;;;-0.58;100.00
5062;BME280;2351;50.812;12.872;2023-12-07T00:19:11;97962.94;;;-0.55;100.00
5062;BME280;2351;50.812;12.872;2023-12-07T00:21:43;97964.59;;;-0.54;100.00
5062;BME280;2351;50.812;12.872;2023-12-07T00:24:15;97962.94;;;-0.55;100.00
5062;BME280;2351;50.812;12.872;2023-12-07T00:26:47;97962.16;;;-0.57;100.00
5062;BME280;2351;50.812;12.872;2023-12-07T00:29:18;97962.94;;;-0.55;100.00
5062;BME280;2351;50.812;12.872;2023-12-07T00:31:50;97965.53;;;-0.55;100.00
5062;BME280;2351;50.812;12.872;2023-12-07T00:34:22;97970.75;;;-0.55;100.00
5062;BME280;2351;50.812;12.872;2023-12-07T00:36:55;97962.16;;;-0.57;100.00
5062;BME280;2351;50.812;12.872;2023-12-07T00:39:27;97964.69;;;-0.56;100.00
5062;BME280;2351;50.812;12.872;2023-12-07T00:41:59;97974.25;;;-0.56;100.00
5062;BME280;2351;50.812;12.872;2023-12-07T00:44:30;97966.50;;;-0.58;100.00
5062;BME280;2351;50.812;12.872;2023-12-07T00:47:02;97974.25;;;-0.56;100.00
5062;BME280;2351;50.812;12.872;2023-12-07T00:49:37;97968.19;;;-0.57;100.00
5062;BME280;2351;50.812;12.872;2023-12-07T00:52:11;97973.25;;;-0.54;100.00
5062;BME280;2351;50.812;12.872;2023-12-07T00:54:43;97982.81;;;-0.54;100.00
5062;BME280;2351;50.812;12.872;2023-12-07T00:57:15;97981.97;;;-0.55;100.00
5062;BME280;2351;50.812;12.872;2023-12-07T00:59:46;97986.34;;;-0.55;100.00
5062;BME280;2351;50.812;12.872;2023-12-07T01:02:18;97988.88;;;-0.54;100.00
5062;BME280;2351;50.812;12.872;2023-12-07T01:04:50;98000.97;;;-0.53;100.00
5062;BME280;2351;50.812;12.872;2023-12-07T01:07:23;97998.41;;;-0.54;100.00
5062;BME280;2351;50.812;12.872;2023-12-07T01:09:54;97996.75;;;-0.55;100.00
5062;BME280;2351;50.812;12.872;2023-12-07T01:12:26;98006.28;;;-0.56;100.00
5062;BME280;2351;50.812;12.872;2023-12-07T01:14:58;98005.28;;;-0.53;100.00
5062;BME280;2351;50.812;12.872;2023-12-07T01:17:29;98013.09;;;-0.53;100.00
5062;BME280;2351;50.812;12.872;2023-12-07T01:20:01;98018.25;;;-0.52;100.00
5062;BME280;2351;50.812;12.872;2023-12-07T01:22:39;98021.75;;;-0.53;100.00
5062;BME280;2351;50.812;12.872;2023-12-07T01:25:11;98018.19;;;-0.50;100.00
5062;BME280;2351;50.812;12.872;2023-12-07T01:27:47;98020.00;;;-0.52;100.00
5062;BME280;2351;50.812;12.872;2023-12-07T01:30:19;98026.88;;;-0.51;100.00
5062;BME280;2351;50.812;12.872;2023-12-07T01:32:50;98023.47;;;-0.52;100.00
5062;BME280;2351;50.812;12.872;2023-12-07T01:35:22;98031.19;;;-0.50;100.00
5062;BME280;2351;50.812;12.872;2023-12-07T01:37:55;98027.75;;;-0.51;100.00
5062;BME280;2351;50.812;12.872;2023-12-07T01:40:27;98032.94;;;-0.51;100.00
5062;BME280;2351;50.812;12.872;2023-12-07T01:42:59;98039.06;;;-0.52;100.00
5062;BME280;2351;50.812;12.872;2023-12-07T01:45:30;98039.84;;;-0.50;100.00
5062;BME280;2351;50.812;12.872;2023-12-07T01:48:02;98032.03;;;-0.50;100.00
5062;BME280;2351;50.812;12.872;2023-12-07T01:50:34;98032.88;;;-0.49;100.00
5062;BME280;2351;50.812;12.872;2023-12-07T01:53:08;98036.38;;;-0.50;100.00
5062;BME280;2351;50.812;12.872;2023-12-07T01:55:41;98036.38;;;-0.50;100.00
5062;BME280;2351;50.812;12.872;2023-12-07T01:58:14;98032.88;;;-0.49;100.00
5062;BME280;2351;50.812;12.872;2023-12-07T02:00:47;98042.44;;;-0.50;100.00
5062;BME280;2351;50.812;12.872;2023-12-07T02:03:20;98041.53;;;-0.49;100.00
5062;BME280;2351;50.812;12.872;2023-12-07T02:05:51;98039.78;;;-0.48;100.00
5062;BME280;2351;50.812;12.872;2023-12-07T02:08:24;98047.56;;;-0.48;100.00
5062;BME280;2351;50.812;12.872;2023-12-07T02:10:56;98047.53;;;-0.47;100.00
5062;BME280;2351;50.812;12.872;2023-12-07T02:13:28;98049.22;;;-0.46;100.00
5062;BME280;2351;50.812;12.872;2023-12-07T02:16:00;98054.47;;;-0.47;100.00
5062;BME280;2351;50.812;12.872;2023-12-07T02:18:39;98050.19;;;-0.48;100.00
5062;BME280;2351;50.812;12.872;2023-12-07T02:21:17;98059.69;;;-0.47;100.00
5062;BME280;2351;50.812;12.872;2023-12-07T02:23:53;98054.44;;;-0.46;100.00
5062;BME280;2351;50.812;12.872;2023-12-07T02:26:31;98056.97;;;-0.44;100.00
5062;BME280;2351;50.812;12.872;2023-12-07T02:29:03;98053.56;;;-0.46;100.00
5062;BME280;2351;50.812;12.872;2023-12-07T02:31:35;98063.19;;;-0.48;100.00
5062;BME280;2351;50.812;12.872;2023-12-07T02:34:07;98063.19;;;-0.48;100.00
5062;BME280;2351;50.812;12.872;2023-12-07T02:36:40;98059.69;;;-0.47;100.00
5062;BME280;2351;50.812;12.872;2023-12-07T02:39:15;98061.44;;;-0.48;100.00
5062;BME280;2351;50.812;12.872;2023-12-07T02:41:49;98063.06;;;-0.45;100.00
5062;BME280;2351;50.812;12.872;2023-12-07T02:44:21;98061.38;;;-0.46;100.00
5062;BME280;2351;50.812;12.872;2023-12-07T02:46:53;98063.97;;;-0.46;100.00
5062;BME280;2351;50.812;12.872;2023-12-07T02:49:25;98063.13;;;-0.47;100.00
5062;BME280;2351;50.812;12.872;2023-12-07T02:51:57;98070.88;;;-0.45;100.00
5062;BME280;2351;50.812;12.872;2023-12-07T02:54:28;98065.75;;;-0.47;100.00
5062;BME280;2351;50.812;12.872;2023-12-07T02:57:01;98071.84;;;-0.48;100.00
5062;BME280;2351;50.812;12.872;2023-12-07T02:59:33;98078.78;;;-0.48;100.00
5062;BME280;2351;50.812;12.872;2023-12-07T03:02:05;98073.59;;;-0.48;100.00
5062;BME280;2351;50.812;12.872;2023-12-07T03:04:37;98077.09;;;-0.49;100.00
5062;BME280;2351;50.812;12.872;2023-12-07T03:07:09;98074.38;;;-0.46;100.00
5062;BME280;2351;50.812;12.872;2023-12-07T03:09:40;98083.03;;;-0.46;100.00
5062;BME280;2351;50.812;12.872;2023-12-07T03:12:13;98083.06;;;-0.47;100.00
5062;BME280;2351;50.812;12.872;2023-12-07T03:14:45;98083.94;;;-0.47;100.00
5062;BME280;2351;50.812;12.872;2023-12-07T03:17:17;98081.28;;;-0.45;100.00
5062;BME280;2351;50.812;12.872;2023-12-07T03:19:49;98086.47;;;-0.45;100.00
5062;BME280;2351;50.812;12.872;2023-12-07T03:22:21;98085.63;;;-0.46;100.00
5062;BME280;2351;50.812;12.872;2023-12-07T03:24:53;98089.06;;;-0.45;100.00
5062;BME280;2351;50.812;12.872;2023-12-07T03:27:26;98092.47;;;-0.43;100.00
5062;BME280;2351;50.812;12.872;2023-12-07T03:29:58;98095.06;;;-0.43;100.00
5062;BME280;2351;50.812;12.872;2023-12-07T03:32:30;98091.56;;;-0.42;100.00
5062;BME280;2351;50.812;12.872;2023-12-07T03:35:02;98088.09;;;-0.42;100.00
5062;BME280;2351;50.812;12.872;2023-12-07T03:37:34;98088.09;;;-0.42;100.00
5062;BME280;2351;50.812;12.872;2023-12-07T03:40:06;98090.69;;;-0.42;100.00
5062;BME280;2351;50.812;12.872;2023-12-07T03:42:40;98089.84;;;-0.43;100.00
5062;BME280;2351;50.812;12.872;2023-12-07T03:45:12;98092.38;;;-0.41;100.00
5062;BME280;2351;50.812;12.872;2023-12-07T03:47:44;98092.47;;;-0.43;100.00
5062;BME280;2351;50.812;12.872;2023-12-07T03:50:15;98097.66;;;-0.43;100.00
5062;BME280;2351;50.812;12.872;2023-12-07T03:52:47;98092.47;;;-0.43;100.00
5062;BME280;2351;50.812;12.872;2023-12-07T03:55:19;98102.00;;;-0.43;100.00
5062;BME280;2351;50.812;12.872;2023-12-07T03:57:52;98103.78;;;-0.44;100.00
5062;BME280;2351;50.812;12.872;2023-12-07T04:00:23;98104.59;;;-0.43;100.00
5062;BME280;2351;50.812;12.872;2023-12-07T04:02:55;98102.00;;;-0.43;100.00
5062;BME280;2351;50.812;12.872;2023-12-07T04:05:27;98106.28;;;-0.42;100.00
5062;BME280;2351;50.812;12.872;2023-12-07T04:07:59;98112.38;;;-0.42;100.00
5062;BME280;2351;50.812;12.872;2023-12-07T04:10:31;98115.88;;;-0.43;100.00
5062;BME280;2351;50.812;12.872;2023-12-07T04:13:04;98114.06;;;-0.41;100.00
5062;BME280;2351;50.812;12.872;2023-12-07T04:15:36;98111.38;;;-0.39;100.00
5062;BME280;2351;50.812;12.872;2023-12-07T04:18:08;98111.47;;;-0.41;100.00
5062;BME280;2351;50.812;12.872;2023-12-07T04:20:39;98114.97;;;-0.42;100.00
5062;BME280;2351;50.812;12.872;2023-12-07T04:23:11;98117.56;;;-0.42;100.00
5062;BME280;2351;50.812;12.872;2023-12-07T04:25:43;98124.50;;;-0.42;100.00
5062;BME280;2351;50.812;12.872;2023-12-07T04:28:16;98125.38;;;-0.42;100.00
5062;BME280;2351;50.812;12.872;2023-12-07T04:30:48;98131.41;;;-0.41;100.00
5062;BME280;2351;50.812;12.872;2023-12-07T04:33:20;98126.19;;;-0.41;100.00
5062;BME280;2351;50.812;12.872;2023-12-07T04:35:51;98134.06;;;-0.43;100.00
5062;BME280;2351;50.812;12.872;2023-12-07T04:38:23;98121.91;;;-0.42;100.00
5062;BME280;2351;50.812;12.872;2023-12-07T04:40:55;98121.91;;;-0.42;100.00
5062;BME280;2351;50.812;12.872;2023-12-07T04:43:28;98129.66;;;-0.41;100.00
5062;BME280;2351;50.812;12.872;2023-12-07T04:46:00;98136.69;;;-0.43;100.00
5062;BME280;2351;50.812;12.872;2023-12-07T04:48:31;98138.38;;;-0.42;100.00
5062;BME280;2351;50.812;12.872;2023-12-07T04:51:03;98138.38;;;-0.42;100.00
5062;BME280;2351;50.812;12.872;2023-12-07T04:53:35;98147.00;;;-0.41;100.00
5062;BME280;2351;50.812;12.872;2023-12-07T04:56:07;98144.47;;;-0.43;100.00
5062;BME280;2351;50.812;12.872;2023-12-07T04:58:40;98144.41;;;-0.41;100.00
5062;BME280;2351;50.812;12.872;2023-12-07T05:01:12;98152.28;;;-0.43;100.00
5062;BME280;2351;50.812;12.872;2023-12-07T05:03:44;98150.59;;;-0.44;100.00
5062;BME280;2351;50.812;12.872;2023-12-07T05:06:15;98157.47;;;-0.43;100.00
5062;BME280;2351;50.812;12.872;2023-12-07T05:08:47;98160.09;;;-0.43;100.00
5062;BME280;2351;50.812;12.872;2023-12-07T05:11:19;98161.78;;;-0.42;100.00
5062;BME280;2351;50.812;12.872;2023-12-07T05:13:52;98162.69;;;-0.43;100.00
5062;BME280;2351;50.812;12.872;2023-12-07T05:16:23;98167.88;;;-0.43;100.00
5062;BME280;2351;50.812;12.872;2023-12-07T05:18:55;98165.28;;;-0.43;100.00
5062;BME280;2351;50.812;12.872;2023-12-07T05:21:27;98166.06;;;-0.41;100.00
5062;BME280;2351;50.812;12.872;2023-12-07T05:23:58;98166.97;;;-0.42;100.00
5062;BME280;2351;50.812;12.872;2023-12-07T05:26:30;98165.22;;;-0.41;100.00
5062;BME280;2351;50.812;12.872;2023-12-07T05:29:04;98167.81;;;-0.41;100.00
5062;BME280;2351;50.812;12.872;2023-12-07T05:31:36;98166.97;;;-0.42;100.00
5062;BME280;2351;50.812;12.872;2023-12-07T05:34:08;98166.19;;;-0.44;100.00
5062;BME280;2351;50.812;12.872;2023-12-07T05:36:39;98164.50;;;-0.45;100.00
5062;BME280;2351;50.812;12.872;2023-12-07T05:39:11;98161.00;;;-0.44;100.00
5062;BME280;2351;50.812;12.872;2023-12-07T05:41:43;98165.28;;;-0.43;100.00
5062;BME280;2351;50.812;12.872;2023-12-07T05:44:18;98164.50;;;-0.45;100.00
5062;BME280;2351;50.812;12.872;2023-12-07T05:46:52;98164.50;;;-0.45;100.00
5062;BME280;2351;50.812;12.872;2023-12-07T05:49:24;98174.91;;;-0.45;100.00
5062;BME280;2351;50.812;12.872;2023-12-07T05:51:56;98177.56;;;-0.47;100.00
5062;BME280;2351;50.812;12.872;2023-12-07T05:54:28;98173.31;;;-0.49;100.00
5062;BME280;2351;50.812;12.872;2023-12-07T05:57:00;98169.81;;;-0.48;100.00
5062;BME280;2351;50.812;12.872;2023-12-07T05:59:36;98179.38;;;-0.49;100.00
5062;BME280;2351;50.812;12.872;2023-12-07T06:02:08;98180.22;;;-0.48;100.00
5062;BME280;2351;50.812;12.872;2023-12-07T06:04:40;98181.97;;;-0.49;100.00
5062;BME280;2351;50.812;12.872;2023-12-07T06:07:12;98184.50;;;-0.47;100.00
5062;BME280;2351;50.812;12.872;2023-12-07T06:09:43;98181.91;;;-0.47;100.00
5062;BME280;2351;50.812;12.872;2023-12-07T06:12:15;98183.59;;;-0.46;100.00
5062;BME280;2351;50.812;12.872;2023-12-07T06:14:48;98178.47;;;-0.48;100.00
5062;BME280;2351;50.812;12.872;2023-12-07T06:17:20;98182.78;;;-0.47;100.00
5062;BME280;2351;50.812;12.872;2023-12-07T06:19:52;98181.91;;;-0.47;100.00
5062;BME280;2351;50.812;12.872;2023-12-07T06:22:24;98186.28;;;-0.48;100.00
5062;BME280;2351;50.812;12.872;2023-12-07T06:24:56;98191.47;;;-0.48;100.00
5062;BME280;2351;50.812;12.872;2023-12-07T06:27:28;98188.91;;;-0.49;100.00
5062;BME280;2351;50.812;12.872;2023-12-07T06:30:01;98186.31;;;-0.49;100.00
5062;BME280;2351;50.812;12.872;2023-12-07T06:32:36;98186.31;;;-0.49;100.00
5062;BME280;2351;50.812;12.872;2023-12-07T06:35:09;98200.06;;;-0.46;100.00
5062;BME280;2351;50.812;12.872;2023-12-07T06:37:42;98192.31;;;-0.47;100.00
5062;BME280;2351;50.812;12.872;2023-12-07T06:40:14;98192.31;;;-0.47;100.00
5062;BME280;2351;50.812;12.872;2023-12-07T06:42:46;98199.19;;;-0.46;100.00
5062;BME280;2351;50.812;12.872;2023-12-07T06:45:19;98200.97;;;-0.47;100.00
5062;BME280;2351;50.812;12.872;2023-12-07T06:47:51;98207.13;;;-0.49;100.00
5062;BME280;2351;50.812;12.872;2023-12-07T06:50:23;98207.97;;;-0.49;100.00
5062;BME280;2351;50.812;12.872;2023-12-07T06:52:54;98217.47;;;-0.48;100.00
5062;BME280;2351;50.812;12.872;2023-12-07T06:55:26;98204.47;;;-0.48;100.00
5062;BME280;2351;50.812;12.872;2023-12-07T06:57:58;98207.00;;;-0.46;100.00
5062;BME280;2351;50.812;12.872;2023-12-07T07:00:31;98207.81;;;-0.44;100.00
5062;BME280;2351;50.812;12.872;2023-12-07T07:03:03;98212.94;;;-0.42;100.00
5062;BME280;2351;50.812;12.872;2023-12-07T07:05:35;98222.50;;;-0.43;100.00
5062;BME280;2351;50.812;12.872;2023-12-07T07:08:06;98219.91;;;-0.43;100.00
5062;BME280;2351;50.812;12.872;2023-12-07T07:10:39;98215.53;;;-0.42;100.00
5062;BME280;2351;50.812;12.872;2023-12-07T07:13:10;98213.00;;;-0.44;100.00
5062;BME280;2351;50.812;12.872;2023-12-07T07:15:44;98226.00;;;-0.44;100.00
5062;BME280;2351;50.812;12.872;2023-12-07T07:18:16;98219.91;;;-0.43;100.00
5062;BME280;2351;50.812;12.872;2023-12-07T07:20:48;98223.34;;;-0.42;100.00
5062;BME280;2351;50.812;12.872;2023-12-07T07:23:19;98225.91;;;-0.41;100.00
5062;BME280;2351;50.812;12.872;2023-12-07T07:25:51;98219.78;;;-0.40;100.00
5062;BME280;2351;50.812;12.872;2023-12-07T07:28:23;98226.69;;;-0.39;100.00
5062;BME280;2351;50.812;12.872;2023-12-07T07:30:56;98226.63;;;-0.37;100.00
5062;BME280;2351;50.812;12.872;2023-12-07T07:33:28;98234.38;;;-0.36;100.00
5062;BME280;2351;50.812;12.872;2023-12-07T07:36:00;98233.53;;;-0.36;100.00
5062;BME280;2351;50.812;12.872;2023-12-07T07:38:31;98229.19;;;-0.36;100.00
5062;BME280;2351;50.812;12.872;2023-12-07T07:41:03;98219.56;;;-0.34;100.00
5062;BME280;2351;50.812;12.872;2023-12-07T07:43:35;98217.72;;;-0.32;100.00
5062;BME280;2351;50.812;12.872;2023-12-07T07:46:08;98215.22;;;-0.33;100.00
5062;BME280;2351;50.812;12.872;2023-12-07T07:48:40;98225.63;;;-0.33;100.00
5062;BME280;2351;50.812;12.872;2023-12-07T07:51:12;98220.28;;;-0.30;100.00
5062;BME280;2351;50.812;12.872;2023-12-07T07:53:43;98216.78;;;-0.29;100.00
5062;BME280;2351;50.812;12.872;2023-12-07T07:56:15;98221.03;;;-0.26;100.00
5062;BME280;2351;50.812;12.872;2023-12-07T07:58:47;98224.41;;;-0.24;100.00
5062;BME280;2351;50.812;12.872;2023-12-07T08:01:20;98227.88;;;-0.24;100.00
5062;BME280;2351;50.812;12.872;2023-12-07T08:03:52;98228.72;;;-0.23;100.00
5062;BME280;2351;50.812;12.872;2023-12-07T08:06:23;98224.31;;;-0.21;100.00
5062;BME280;2351;50.812;12.872;2023-12-07T08:08:55;98227.69;;;-0.19;100.00
5062;BME280;2351;50.812;12.872;2023-12-07T08:11:27;98232.91;;;-0.19;100.00
5062;BME280;2351;50.812;12.872;2023-12-07T08:13:59;98228.50;;;-0.17;100.00
5062;BME280;2351;50.812;12.872;2023-12-07T08:16:32;98229.31;;;-0.17;100.00
5062;BME280;2351;50.812;12.872;2023-12-07T08:19:04;98235.31;;;-0.14;100.00
5062;BME280;2351;50.812;12.872;2023-12-07T08:21:35;98227.41;;;-0.11;100.00
5062;BME280;2351;50.812;12.872;2023-12-07T08:24:07;98230.84;;;-0.11;100.00
5062;BME280;2351;50.812;12.872;2023-12-07T08:26:39;98232.53;;;-0.10;100.00
5062;BME280;2351;50.812;12.872;2023-12-07T08:29:11;98234.22;;;-0.09;100.00
5062;BME280;2351;50.812;12.872;2023-12-07T08:31:44;98234.97;;;-0.05;100.00
5062;BME280;2351;50.812;12.872;2023-12-07T08:34:17;98241.81;;;-0.03;100.00
5062;BME280;2351;50.812;12.872;2023-12-07T08:36:49;98249.63;;;-0.03;100.00
5062;BME280;2351;50.812;12.872;2023-12-07T08:39:20;98246.97;;;-0.01;100.00
5062;BME280;2351;50.812;12.872;2023-12-07T08:41:52;98243.28;;;0.05;100.00
5062;BME280;2351;50.812;12.872;2023-12-07T08:44:24;98244.91;;;0.07;100.00
5062;BME280;2351;50.812;12.872;2023-12-07T08:46:57;98242.25;;;0.09;100.00
5062;BME280;2351;50.812;12.872;2023-12-07T08:49:29;98255.09;;;0.13;100.00
5062;BME280;2351;50.812;12.872;2023-12-07T08:52:00;98256.78;;;0.14;100.00
5062;BME280;2351;50.812;12.872;2023-12-07T08:54:32;98261.09;;;0.16;100.00
5062;BME280;2351;50.812;12.872;2023-12-07T08:57:06;98255.03;;;0.15;100.00
5062;BME280;2351;50.812;12.872;2023-12-07T08:59:38;98266.22;;;0.17;100.00
5062;BME280;2351;50.812;12.872;2023-12-07T09:02:11;98271.31;;;0.20;100.00
5062;BME280;2351;50.812;12.872;2023-12-07T09:04:43;98270.50;;;0.20;100.00
5062;BME280;2351;50.812;12.872;2023-12-07T09:07:15;98273.88;;;0.22;100.00
5062;BME280;2351;50.812;12.872;2023-12-07T09:09:47;98284.28;;;0.22;100.00
5062;BME280;2351;50.812;12.872;2023-12-07T09:12:19;98284.28;;;0.22;100.00
5062;BME280;2351;50.812;12.872;2023-12-07T09:14:50;98279.91;;;0.22;100.00
5062;BME280;2351;50.812;12.872;2023-12-07T09:17:23;98277.25;;;0.24;100.00
5062;BME280;2351;50.812;12.872;2023-12-07T09:19:55;98278.94;;;0.25;100.00
5062;BME280;2351;50.812;12.872;2023-12-07T09:22:27;98290.09;;;0.28;100.00
5062;BME280;2351;50.812;12.872;2023-12-07T09:24:58;98280.59;;;0.27;100.00
5062;BME280;2351;50.812;12.872;2023-12-07T09:27:30;98286.59;;;0.29;100.00
5062;BME280;2351;50.812;12.872;2023-12-07T09:30:04;98287.53;;;0.27;100.00
5062;BME280;2351;50.812;12.872;2023-12-07T09:32:39;98290.16;;;0.27;100.00
5062;BME280;2351;50.812;12.872;2023-12-07T09:35:11;98281.31;;;0.31;100.00
5062;BME280;2351;50.812;12.872;2023-12-07T09:37:45;98277.88;;;0.31;100.00
5062;BME280;2351;50.812;12.872;2023-12-07T09:40:18;98282.34;;;0.27;100.00
5062;BME280;2351;50.812;12.872;2023-12-07T09:42:50;98285.72;;;0.29;100.00
5062;BME280;2351;50.812;12.872;2023-12-07T09:45:22;98281.38;;;0.29;100.00
5062;BME280;2351;50.812;12.872;2023-12-07T09:47:55;98277.00;;;0.30;100.00
5062;BME280;2351;50.812;12.872;2023-12-07T09:50:27;98271.75;;;0.32;100.00
5062;BME280;2351;50.812;12.872;2023-12-07T09:52:59;98270.84;;;0.33;100.00
5062;BME280;2351;50.812;12.872;2023-12-07T09:55:30;98267.31;;;0.34;100.00
5062;BME280;2351;50.812;12.872;2023-12-07T09:58:03;98270.72;;;0.36;100.00
5062;BME280;2351;50.812;12.872;2023-12-07T10:00:35;98269.81;;;0.37;100.00
5062;BME280;2351;50.812;12.872;2023-12-07T10:03:20;98266.28;;;0.38;100.00
5062;BME280;2351;50.812;12.872;2023-12-07T10:05:54;98274.91;;;0.40;100.00
5062;BME280;2351;50.812;12.872;2023-12-07T10:08:28;98274.00;;;0.41;100.00
5062;BME280;2351;50.812;12.872;2023-12-07T10:11:04;98273.78;;;0.45;100.00
5062;BME280;2351;50.812;12.872;2023-12-07T10:13:37;98269.38;;;0.48;100.00
5062;BME280;2351;50.812;12.872;2023-12-07T10:16:10;98265.88;;;0.49;100.00
5062;BME280;2351;50.812;12.872;2023-12-07T10:18:44;98265.94;;;0.47;100.00
5062;BME280;2351;50.812;12.872;2023-12-07T10:21:16;98263.47;;;0.44;100.00
5062;BME280;2351;50.812;12.872;2023-12-07T10:23:48;98266.88;;;0.44;100.00
5062;BME280;2351;50.812;12.872;2023-12-07T10:26:21;98267.69;;;0.47;100.00
5062;BME280;2351;50.812;12.872;2023-12-07T10:28:53;98268.44;;;0.50;100.00
5062;BME280;2351;50.812;12.872;2023-12-07T10:31:25;98274.47;;;0.51;100.00
5062;BME280;2351;50.812;12.872;2023-12-07T10:33:59;98278.97;;;0.47;100.00
5062;BME280;2351;50.812;12.872;2023-12-07T10:36:31;98273.69;;;0.49;100.00
5062;BME280;2351;50.812;12.872;2023-12-07T10:39:03;98272.78;;;0.50;100.00
5062;BME280;2351;50.812;12.872;2023-12-07T10:41:36;98265.03;;;0.48;100.00
5062;BME280;2351;50.812;12.872;2023-12-07T10:44:13;98271.94;;;0.49;100.00
5062;BME280;2351;50.812;12.872;2023-12-07T10:46:46;98268.44;;;0.50;100.00
5062;BME280;2351;50.812;12.872;2023-12-07T10:49:21;98263.09;;;0.53;100.00
5062;BME280;2351;50.812;12.872;2023-12-07T10:51:58;98265.44;;;0.59;100.00
5062;BME280;2351;50.812;12.872;2023-12-07T10:54:39;98269.75;;;0.60;100.00
5062;BME280;2351;50.812;12.872;2023-12-07T10:57:13;98266.34;;;0.58;100.00
5062;BME280;2351;50.812;12.872;2023-12-07T10:59:46;98268.91;;;0.60;100.00
5062;BME280;2351;50.812;12.872;2023-12-07T11:02:21;98260.31;;;0.58;100.00
5062;BME280;2351;50.812;12.872;2023-12-07T11:04:56;98266.31;;;0.60;100.00
5062;BME280;2351;50.812;12.872;2023-12-07T11:07:36;98263.63;;;0.62;100.00
5062;BME280;2351;50.812;12.872;2023-12-07T11:10:13;98261.00;;;0.62;100.00
5062;BME280;2351;50.812;12.872;2023-12-07T11:12:53;98261.88;;;0.62;100.00
5062;BME280;2351;50.812;12.872;2023-12-07T11:15:27;98267.72;;;0.67;100.00
5062;BME280;2351;50.812;12.872;2023-12-07T11:18:02;98265.00;;;0.70;100.00
5062;BME280;2351;50.812;12.872;2023-12-07T11:20:42;98267.44;;;0.75;100.00
5062;BME280;2351;50.812;12.872;2023-12-07T11:23:16;98263.78;;;0.79;100.00
5062;BME280;2351;50.812;12.872;2023-12-07T11:25:49;98264.56;;;0.81;100.00
5062;BME280;2351;50.812;12.872;2023-12-07T11:28:34;98258.44;;;0.82;100.00
5062;BME280;2351;50.812;12.872;2023-12-07T11:31:07;98255.19;;;0.77;100.00
5062;BME280;2351;50.812;12.872;2023-12-07T11:33:39;98258.72;;;0.76;100.00
5062;BME280;2351;50.812;12.872;2023-12-07T11:36:12;98252.44;;;0.80;100.00
5062;BME280;2351;50.812;12.872;2023-12-07T11:39:16;98253.22;;;0.82;100.00
5062;BME280;2351;50.812;12.872;2023-12-07T11:41:51;98253.88;;;0.87;100.00
5062;BME280;2351;50.812;12.872;2023-12-07T11:44:33;98253.78;;;0.90;100.00
5062;BME280;2351;50.812;12.872;2023-12-07T11:47:05;98258.00;;;0.93;100.00
5062;BME280;2351;50.812;12.872;2023-12-07T11:49:37;98252.19;;;0.86;100.00
5062;BME280;2351;50.812;12.872;2023-12-07T11:52:14;98252.84;;;0.92;100.00
5062;BME280;2351;50.812;12.872;2023-12-07T11:54:46;98251.16;;;0.90;100.00
5062;BME280;2351;50.812;12.872;2023-12-07T11:57:18;98258.97;;;0.90;100.00
5062;BME280;2351;50.812;12.872;2023-12-07T11:59:51;98245.81;;;0.94;100.00
5062;BME280;2351;50.812;12.872;2023-12-07T12:02:22;98251.03;;;0.94;100.00
5062;BME280;2351;50.812;12.872;2023-12-07T12:04:54;98250.63;;;0.82;100.00
5062;BME280;2351;50.812;12.872;2023-12-07T12:07:27;98248.00;;;0.82;100.00
5062;BME280;2351;50.812;12.872;2023-12-07T12:10:00;98247.78;;;0.88;100.00
5062;BME280;2351;50.812;12.872;2023-12-07T12:12:33;98256.50;;;0.87;100.00
5062;BME280;2351;50.812;12.872;2023-12-07T12:15:06;98246.19;;;0.84;100.00
5062;BME280;2351;50.812;12.872;2023-12-07T12:17:38;98237.59;;;0.82;100.00
5062;BME280;2351;50.812;12.872;2023-12-07T12:20:10;98233.81;;;0.89;100.00
5062;BME280;2351;50.812;12.872;2023-12-07T12:22:49;98231.00;;;0.94;100.00
5062;BME280;2351;50.812;12.872;2023-12-07T12:25:21;98238.66;;;0.99;100.00
5062;BME280;2351;50.812;12.872;2023-12-07T12:27:56;98231.59;;;1.01;100.00
5062;BME280;2351;50.812;12.872;2023-12-07T12:30:29;98230.69;;;1.02;100.00
5062;BME280;2351;50.812;12.872;2023-12-07T12:33:02;98226.25;;;1.04;100.00
5062;BME280;2351;50.812;12.872;2023-12-07T12:35:34;98229.72;;;1.04;100.00
5062;BME280;2351;50.812;12.872;2023-12-07T12:38:10;98233.13;;;1.07;100.00
5062;BME280;2351;50.812;12.872;2023-12-07T12:40:42;98230.50;;;1.07;100.00
5062;BME280;2351;50.812;12.872;2023-12-07T12:43:14;98233.03;;;1.08;100.00
5062;BME280;2351;50.812;12.872;2023-12-07T12:45:46;98225.16;;;1.10;100.00
5062;BME280;2351;50.812;12.872;2023-12-07T12:48:18;98230.38;;;1.10;100.00
5062;BME280;2351;50.812;12.872;2023-12-07T12:50:49;98221.78;;;1.08;100.00
5062;BME280;2351;50.812;12.872;2023-12-07T12:53:23;98220.00;;;1.08;100.00
5062;BME280;2351;50.812;12.872;2023-12-07T12:55:55;98216.69;;;1.04;100.00
5062;BME280;2351;50.812;12.872;2023-12-07T12:58:28;98219.22;;;1.06;100.00
5062;BME280;2351;50.812;12.872;2023-12-07T13:01:01;98214.78;;;1.08;100.00
5062;BME280;2351;50.812;12.872;2023-12-07T13:03:34;98217.41;;;1.08;100.00
5062;BME280;2351;50.812;12.872;2023-12-07T13:06:06;98221.69;;;1.09;100.00
5062;BME280;2351;50.812;12.872;2023-12-07T13:08:39;98213.22;;;1.04;100.00
5062;BME280;2351;50.812;12.872;2023-12-07T13:11:14;98224.56;;;1.03;100.00
5062;BME280;2351;50.812;12.872;2023-12-07T13:13:47;98217.66;;;1.02;100.00
5062;BME280;2351;50.812;12.872;2023-12-07T13:16:19;98221.97;;;1.03;100.00
5062;BME280;2351;50.812;12.872;2023-12-07T13:18:51;98220.25;;;1.02;100.00
5062;BME280;2351;50.812;12.872;2023-12-07T13:21:24;98226.38;;;1.01;100.00
5062;BME280;2351;50.812;12.872;2023-12-07T13:23:59;98220.41;;;0.99;100.00
5062;BME280;2351;50.812;12.872;2023-12-07T13:26:31;98224.84;;;0.97;100.00
5062;BME280;2351;50.812;12.872;2023-12-07T13:29:03;98224.97;;;0.94;100.00
5062;BME280;2351;50.812;12.872;2023-12-07T13:31:35;98230.19;;;0.94;100.00
5062;BME280;2351;50.812;12.872;2023-12-07T13:34:07;98230.22;;;0.92;100.00